sensor_id;sensor_type;location;lat;lon;timestamp;temperature;humidity
44277;DHT22;29973;43.742;1.236;2023-03-02T00:02:02;1.30;99.90
44277;DHT22;29973;43.742;1.236;2023-03-02T00:04:36;1.20;99.90
44277;DHT22;29973;43.742;1.236;2023-03-02T00:07:07;1.30;99.90
44277;DHT22;29973;43.742;1.236;2023-03-02T00:09:34;1.30;99.90
44277;DHT22;29973;43.742;1.236;2023-03-02T00:12:00;1.30;99.90
44277;DHT22;29973;43.742;1.236;2023-03-02T00:14:26;1.10;99.90
44277;DHT22;29973;43.742;1.236;2023-03-02T00:16:52;1.00;99.90
44277;DHT22;29973;43.742;1.236;2023-03-02T00:19:26;1.10;99.90
44277;DHT22;29973;43.742;1.236;2023-03-02T00:21:54;1.10;99.90
44277;DHT22;29973;43.742;1.236;2023-03-02T00:24:20;1.10;99.90
44277;DHT22;29973;43.742;1.236;2023-03-02T00:26:45;1.00;99.90
44277;DHT22;29973;43.742;1.236;2023-03-02T00:29:11;1.00;99.90
44277;DHT22;29973;43.742;1.236;2023-03-02T00:31:37;1.00;99.90
44277;DHT22;29973;43.742;1.236;2023-03-02T00:34:03;1.00;99.90
44277;DHT22;29973;43.742;1.236;2023-03-02T00:36:29;0.90;99.90
44277;DHT22;29973;43.742;1.236;2023-03-02T00:38:55;1.00;99.90
44277;DHT22;29973;43.742;1.236;2023-03-02T00:41:22;1.00;99.90
44277;DHT22;29973;43.742;1.236;2023-03-02T00:43:48;1.10;99.90
44277;DHT22;29973;43.742;1.236;2023-03-02T00:46:17;1.10;99.90
44277;DHT22;29973;43.742;1.236;2023-03-02T00:48:44;1.20;99.90
44277;DHT22;29973;43.742;1.236;2023-03-02T00:51:11;1.20;99.90
44277;DHT22;29973;43.742;1.236;2023-03-02T00:53:40;1.20;99.90
44277;DHT22;29973;43.742;1.236;2023-03-02T00:56:07;1.20;99.90
44277;DHT22;29973;43.742;1.236;2023-03-02T00:58:33;1.20;99.90
44277;DHT22;29973;43.742;1.236;2023-03-02T01:01:11;1.20;99.90
44277;DHT22;29973;43.742;1.236;2023-03-02T01:03:37;1.20;99.90
44277;DHT22;29973;43.742;1.236;2023-03-02T01:06:12;1.10;99.90
44277;DHT22;29973;43.742;1.236;2023-03-02T01:08:47;1.10;99.90
44277;DHT22;29973;43.742;1.236;2023-03-02T01:11:21;1.10;99.90
44277;DHT22;29973;43.742;1.236;2023-03-02T01:13:48;1.10;99.90
44277;DHT22;29973;43.742;1.236;2023-03-02T01:16:15;1.00;99.90
44277;DHT22;29973;43.742;1.236;2023-03-02T01:18:41;1.00;99.90
44277;DHT22;29973;43.742;1.236;2023-03-02T01:21:13;1.00;99.90
44277;DHT22;29973;43.742;1.236;2023-03-02T01:23:39;1.00;99.90
44277;DHT22;29973;43.742;1.236;2023-03-02T01:26:06;0.90;99.90
44277;DHT22;29973;43.742;1.236;2023-03-02T01:28:32;1.00;99.90
44277;DHT22;29973;43.742;1.236;2023-03-02T01:31:00;1.00;99.90
44277;DHT22;29973;43.742;1.236;2023-03-02T01:33:40;1.10;99.90
44277;DHT22;29973;43.742;1.236;2023-03-02T01:36:18;1.20;99.90
44277;DHT22;29973;43.742;1.236;2023-03-02T01:38:49;1.20;99.90
44277;DHT22;29973;43.742;1.236;2023-03-02T01:41:16;1.20;99.90
44277;DHT22;29973;43.742;1.236;2023-03-02T01:43:42;1.20;99.90
44277;DHT22;29973;43.742;1.236;2023-03-02T01:46:18;1.20;99.90
44277;DHT22;29973;43.742;1.236;2023-03-02T01:49:01;1.30;99.90
44277;DHT22;29973;43.742;1.236;2023-03-02T01:51:31;1.30;99.90
44277;DHT22;29973;43.742;1.236;2023-03-02T01:54:07;1.40;99.90
44277;DHT22;29973;43.742;1.236;2023-03-02T01:56:43;1.40;99.90
44277;DHT22;29973;43.742;1.236;2023-03-02T01:59:14;1.40;99.90
44277;DHT22;29973;43.742;1.236;2023-03-02T02:01:44;1.50;99.90
44277;DHT22;29973;43.742;1.236;2023-03-02T02:04:12;1.50;99.90
44277;DHT22;29973;43.742;1.236;2023-03-02T02:06:55;1.50;99.90
44277;DHT22;29973;43.742;1.236;2023-03-02T02:09:27;1.50;99.90
44277;DHT22;29973;43.742;1.236;2023-03-02T02:12:03;1.60;99.90
44277;DHT22;29973;43.742;1.236;2023-03-02T02:14:30;1.60;99.90
44277;DHT22;29973;43.742;1.236;2023-03-02T02:17:01;1.60;99.90
44277;DHT22;29973;43.742;1.236;2023-03-02T02:19:44;1.60;99.90
44277;DHT22;29973;43.742;1.236;2023-03-02T02:22:21;1.60;99.90
44277;DHT22;29973;43.742;1.236;2023-03-02T02:24:56;1.70;99.90
44277;DHT22;29973;43.742;1.236;2023-03-02T02:27:24;1.70;99.90
44277;DHT22;29973;43.742;1.236;2023-03-02T02:29:55;1.70;99.90
44277;DHT22;29973;43.742;1.236;2023-03-02T02:32:24;1.70;99.90
44277;DHT22;29973;43.742;1.236;2023-03-02T02:35:14;1.70;99.90
44277;DHT22;29973;43.742;1.236;2023-03-02T02:37:50;1.70;99.90
44277;DHT22;29973;43.742;1.236;2023-03-02T02:40:35;1.80;99.90
44277;DHT22;29973;43.742;1.236;2023-03-02T02:43:03;1.70;99.90
44277;DHT22;29973;43.742;1.236;2023-03-02T02:45:35;1.70;99.90
44277;DHT22;29973;43.742;1.236;2023-03-02T02:48:25;1.80;99.90
44277;DHT22;29973;43.742;1.236;2023-03-02T02:51:05;1.80;99.90
44277;DHT22;29973;43.742;1.236;2023-03-02T02:53:56;1.80;99.90
44277;DHT22;29973;43.742;1.236;2023-03-02T02:56:35;1.80;99.90
44277;DHT22;29973;43.742;1.236;2023-03-02T03:01:55;1.90;99.90
44277;DHT22;29973;43.742;1.236;2023-03-02T03:04:28;1.90;99.90
44277;DHT22;29973;43.742;1.236;2023-03-02T03:06:59;1.80;99.90
44277;DHT22;29973;43.742;1.236;2023-03-02T03:09:28;1.80;99.90
44277;DHT22;29973;43.742;1.236;2023-03-02T03:12:12;1.80;99.90
44277;DHT22;29973;43.742;1.236;2023-03-02T03:14:40;1.80;99.90
44277;DHT22;29973;43.742;1.236;2023-03-02T03:17:12;1.80;99.90
44277;DHT22;29973;43.742;1.236;2023-03-02T03:19:44;1.80;99.90
44277;DHT22;29973;43.742;1.236;2023-03-02T03:22:10;1.80;99.90
44277;DHT22;29973;43.742;1.236;2023-03-02T03:24:43;1.90;99.90
44277;DHT22;29973;43.742;1.236;2023-03-02T03:27:14;1.90;99.90
44277;DHT22;29973;43.742;1.236;2023-03-02T03:29:42;1.80;99.90
44277;DHT22;29973;43.742;1.236;2023-03-02T03:32:21;1.80;99.90
44277;DHT22;29973;43.742;1.236;2023-03-02T03:34:47;1.80;99.90
44277;DHT22;29973;43.742;1.236;2023-03-02T03:37:16;1.90;99.90
44277;DHT22;29973;43.742;1.236;2023-03-02T03:39:42;1.80;99.90
44277;DHT22;29973;43.742;1.236;2023-03-02T03:42:08;1.80;99.90
44277;DHT22;29973;43.742;1.236;2023-03-02T03:44:34;1.70;99.90
44277;DHT22;29973;43.742;1.236;2023-03-02T03:47:00;1.70;99.90
44277;DHT22;29973;43.742;1.236;2023-03-02T03:49:26;1.70;99.90
44277;DHT22;29973;43.742;1.236;2023-03-02T03:51:52;1.70;99.90
44277;DHT22;29973;43.742;1.236;2023-03-02T03:54:21;1.70;99.90
44277;DHT22;29973;43.742;1.236;2023-03-02T03:56:49;1.70;99.90
44277;DHT22;29973;43.742;1.236;2023-03-02T03:59:22;1.70;99.90
44277;DHT22;29973;43.742;1.236;2023-03-02T04:01:56;1.70;99.90
44277;DHT22;29973;43.742;1.236;2023-03-02T04:04:31;1.60;99.90
44277;DHT22;29973;43.742;1.236;2023-03-02T04:06:58;1.60;99.90
44277;DHT22;29973;43.742;1.236;2023-03-02T04:09:25;1.60;99.90
44277;DHT22;29973;43.742;1.236;2023-03-02T04:11:52;1.60;99.90
44277;DHT22;29973;43.742;1.236;2023-03-02T04:14:20;1.60;99.90
44277;DHT22;29973;43.742;1.236;2023-03-02T04:16:46;1.70;99.90
44277;DHT22;29973;43.742;1.236;2023-03-02T04:19:13;1.70;99.90
44277;DHT22;29973;43.742;1.236;2023-03-02T04:21:50;1.80;99.90
44277;DHT22;29973;43.742;1.236;2023-03-02T04:24:18;1.80;99.90
44277;DHT22;29973;43.742;1.236;2023-03-02T04:26:45;1.80;99.90
44277;DHT22;29973;43.742;1.236;2023-03-02T04:29:20;1.80;99.90
44277;DHT22;29973;43.742;1.236;2023-03-02T04:31:49;1.80;99.90
44277;DHT22;29973;43.742;1.236;2023-03-02T04:34:15;1.80;99.90
44277;DHT22;29973;43.742;1.236;2023-03-02T04:36:46;1.80;99.90
44277;DHT22;29973;43.742;1.236;2023-03-02T04:39:17;1.80;99.90
44277;DHT22;29973;43.742;1.236;2023-03-02T04:41:44;1.90;99.90
44277;DHT22;29973;43.742;1.236;2023-03-02T04:44:10;1.90;99.90
44277;DHT22;29973;43.742;1.236;2023-03-02T04:46:40;1.90;99.90
44277;DHT22;29973;43.742;1.236;2023-03-02T04:49:06;1.90;99.90
44277;DHT22;29973;43.742;1.236;2023-03-02T04:51:36;1.90;99.90
44277;DHT22;29973;43.742;1.236;2023-03-02T04:54:05;1.90;99.90
44277;DHT22;29973;43.742;1.236;2023-03-02T04:56:32;1.90;99.90
44277;DHT22;29973;43.742;1.236;2023-03-02T04:58:58;1.90;99.90
44277;DHT22;29973;43.742;1.236;2023-03-02T05:01:27;1.90;99.90
44277;DHT22;29973;43.742;1.236;2023-03-02T05:04:01;1.80;99.90
44277;DHT22;29973;43.742;1.236;2023-03-02T05:06:33;1.90;99.90
44277;DHT22;29973;43.742;1.236;2023-03-02T05:08:59;1.80;99.90
44277;DHT22;29973;43.742;1.236;2023-03-02T05:11:25;1.90;99.90
44277;DHT22;29973;43.742;1.236;2023-03-02T05:13:54;1.80;99.90
44277;DHT22;29973;43.742;1.236;2023-03-02T05:16:20;1.80;99.90
44277;DHT22;29973;43.742;1.236;2023-03-02T05:18:46;1.90;99.90
44277;DHT22;29973;43.742;1.236;2023-03-02T05:21:13;1.90;99.90
44277;DHT22;29973;43.742;1.236;2023-03-02T05:23:40;1.90;99.90
44277;DHT22;29973;43.742;1.236;2023-03-02T05:26:06;1.90;99.90
44277;DHT22;29973;43.742;1.236;2023-03-02T05:28:32;1.90;99.90
44277;DHT22;29973;43.742;1.236;2023-03-02T05:30:58;1.90;99.90
44277;DHT22;29973;43.742;1.236;2023-03-02T05:33:24;1.90;99.90
44277;DHT22;29973;43.742;1.236;2023-03-02T05:35:50;1.90;99.90
44277;DHT22;29973;43.742;1.236;2023-03-02T05:38:16;1.90;99.90
44277;DHT22;29973;43.742;1.236;2023-03-02T05:40:51;2.00;99.90
44277;DHT22;29973;43.742;1.236;2023-03-02T05:43:21;1.90;99.90
44277;DHT22;29973;43.742;1.236;2023-03-02T05:45:50;1.90;99.90
44277;DHT22;29973;43.742;1.236;2023-03-02T05:48:26;1.90;99.90
44277;DHT22;29973;43.742;1.236;2023-03-02T05:50:55;2.00;99.90
44277;DHT22;29973;43.742;1.236;2023-03-02T05:53:21;1.90;99.90
44277;DHT22;29973;43.742;1.236;2023-03-02T05:55:48;1.90;99.90
44277;DHT22;29973;43.742;1.236;2023-03-02T05:58:15;1.90;99.90
44277;DHT22;29973;43.742;1.236;2023-03-02T06:00:43;1.90;99.90
44277;DHT22;29973;43.742;1.236;2023-03-02T06:03:09;1.90;99.90
44277;DHT22;29973;43.742;1.236;2023-03-02T06:05:35;2.00;99.90
44277;DHT22;29973;43.742;1.236;2023-03-02T06:08:07;2.00;99.90
44277;DHT22;29973;43.742;1.236;2023-03-02T06:10:33;2.00;99.90
44277;DHT22;29973;43.742;1.236;2023-03-02T06:13:02;2.00;99.90
44277;DHT22;29973;43.742;1.236;2023-03-02T06:15:30;2.00;99.90
44277;DHT22;29973;43.742;1.236;2023-03-02T06:17:56;2.00;99.90
44277;DHT22;29973;43.742;1.236;2023-03-02T06:20:22;1.90;99.90
44277;DHT22;29973;43.742;1.236;2023-03-02T06:22:48;1.90;99.90
44277;DHT22;29973;43.742;1.236;2023-03-02T06:25:20;1.90;99.90
44277;DHT22;29973;43.742;1.236;2023-03-02T06:27:50;1.90;99.90
44277;DHT22;29973;43.742;1.236;2023-03-02T06:30:23;1.90;99.90
44277;DHT22;29973;43.742;1.236;2023-03-02T06:32:52;1.90;99.90
44277;DHT22;29973;43.742;1.236;2023-03-02T06:35:21;1.90;99.90
44277;DHT22;29973;43.742;1.236;2023-03-02T06:37:48;1.90;99.90
44277;DHT22;29973;43.742;1.236;2023-03-02T06:40:14;1.90;99.90
44277;DHT22;29973;43.742;1.236;2023-03-02T06:42:40;1.80;99.90
44277;DHT22;29973;43.742;1.236;2023-03-02T06:45:07;1.80;99.90
44277;DHT22;29973;43.742;1.236;2023-03-02T06:47:34;1.90;99.90
44277;DHT22;29973;43.742;1.236;2023-03-02T06:50:00;1.90;99.90
44277;DHT22;29973;43.742;1.236;2023-03-02T06:52:25;1.90;99.90
44277;DHT22;29973;43.742;1.236;2023-03-02T06:54:54;1.90;99.90
44277;DHT22;29973;43.742;1.236;2023-03-02T06:57:23;1.90;99.90
44277;DHT22;29973;43.742;1.236;2023-03-02T07:00:03;1.90;99.90
44277;DHT22;29973;43.742;1.236;2023-03-02T07:02:34;1.90;99.90
44277;DHT22;29973;43.742;1.236;2023-03-02T07:05:00;1.90;99.90
44277;DHT22;29973;43.742;1.236;2023-03-02T07:07:27;1.90;99.90
44277;DHT22;29973;43.742;1.236;2023-03-02T07:09:52;1.90;99.90
44277;DHT22;29973;43.742;1.236;2023-03-02T07:12:18;1.90;99.90
44277;DHT22;29973;43.742;1.236;2023-03-02T07:14:44;1.90;99.90
44277;DHT22;29973;43.742;1.236;2023-03-02T07:17:10;1.90;99.90
44277;DHT22;29973;43.742;1.236;2023-03-02T07:19:35;2.00;99.90
44277;DHT22;29973;43.742;1.236;2023-03-02T07:22:04;2.10;99.90
44277;DHT22;29973;43.742;1.236;2023-03-02T07:24:32;2.10;99.90
44277;DHT22;29973;43.742;1.236;2023-03-02T07:26:58;2.10;99.90
44277;DHT22;29973;43.742;1.236;2023-03-02T07:29:24;2.20;99.90
44277;DHT22;29973;43.742;1.236;2023-03-02T07:32:02;2.20;99.90
44277;DHT22;29973;43.742;1.236;2023-03-02T07:34:31;2.20;99.90
44277;DHT22;29973;43.742;1.236;2023-03-02T07:36:57;2.30;99.90
44277;DHT22;29973;43.742;1.236;2023-03-02T07:39:23;2.30;99.90
44277;DHT22;29973;43.742;1.236;2023-03-02T07:41:49;2.30;99.90
44277;DHT22;29973;43.742;1.236;2023-03-02T07:44:15;2.40;99.90
44277;DHT22;29973;43.742;1.236;2023-03-02T07:46:40;2.40;99.90
44277;DHT22;29973;43.742;1.236;2023-03-02T07:49:06;2.40;99.90
44277;DHT22;29973;43.742;1.236;2023-03-02T07:51:38;2.50;99.90
44277;DHT22;29973;43.742;1.236;2023-03-02T07:54:04;2.50;99.90
44277;DHT22;29973;43.742;1.236;2023-03-02T07:56:29;2.50;99.90
44277;DHT22;29973;43.742;1.236;2023-03-02T07:58:55;2.60;99.90
44277;DHT22;29973;43.742;1.236;2023-03-02T08:01:21;2.60;99.90
44277;DHT22;29973;43.742;1.236;2023-03-02T08:04:02;2.60;99.90
44277;DHT22;29973;43.742;1.236;2023-03-02T08:06:34;2.60;99.90
44277;DHT22;29973;43.742;1.236;2023-03-02T08:09:02;2.60;99.90
44277;DHT22;29973;43.742;1.236;2023-03-02T08:11:28;2.60;99.90
44277;DHT22;29973;43.742;1.236;2023-03-02T08:13:53;2.70;99.90
44277;DHT22;29973;43.742;1.236;2023-03-02T08:16:19;2.80;99.90
44277;DHT22;29973;43.742;1.236;2023-03-02T08:18:46;2.80;99.90
44277;DHT22;29973;43.742;1.236;2023-03-02T08:21:23;2.80;99.90
44277;DHT22;29973;43.742;1.236;2023-03-02T08:23:49;2.90;99.90
44277;DHT22;29973;43.742;1.236;2023-03-02T08:26:16;2.90;99.90
44277;DHT22;29973;43.742;1.236;2023-03-02T08:28:43;3.00;99.90
44277;DHT22;29973;43.742;1.236;2023-03-02T08:31:09;3.00;99.90
44277;DHT22;29973;43.742;1.236;2023-03-02T08:33:35;3.10;99.90
44277;DHT22;29973;43.742;1.236;2023-03-02T08:36:13;3.20;99.90
44277;DHT22;29973;43.742;1.236;2023-03-02T08:38:39;3.30;99.90
44277;DHT22;29973;43.742;1.236;2023-03-02T08:41:07;3.30;99.90
44277;DHT22;29973;43.742;1.236;2023-03-02T08:43:35;3.50;99.90
44277;DHT22;29973;43.742;1.236;2023-03-02T08:46:01;3.60;99.90
44277;DHT22;29973;43.742;1.236;2023-03-02T08:48:27;3.70;99.90
44277;DHT22;29973;43.742;1.236;2023-03-02T08:51:02;3.70;99.90
44277;DHT22;29973;43.742;1.236;2023-03-02T08:53:30;3.70;99.90
44277;DHT22;29973;43.742;1.236;2023-03-02T08:55:57;3.80;99.90
44277;DHT22;29973;43.742;1.236;2023-03-02T08:58:38;3.90;99.90
44277;DHT22;29973;43.742;1.236;2023-03-02T09:01:04;3.90;99.90
44277;DHT22;29973;43.742;1.236;2023-03-02T09:03:36;3.80;99.90
44277;DHT22;29973;43.742;1.236;2023-03-02T09:06:23;3.80;99.90
44277;DHT22;29973;43.742;1.236;2023-03-02T09:09:06;4.00;99.90
44277;DHT22;29973;43.742;1.236;2023-03-02T09:11:32;4.10;99.90
44277;DHT22;29973;43.742;1.236;2023-03-02T09:13:58;4.20;99.90
44277;DHT22;29973;43.742;1.236;2023-03-02T09:16:24;4.40;99.90
44277;DHT22;29973;43.742;1.236;2023-03-02T09:18:51;4.30;99.90
44277;DHT22;29973;43.742;1.236;2023-03-02T09:21:17;4.20;99.90
44277;DHT22;29973;43.742;1.236;2023-03-02T09:23:43;4.40;99.90
44277;DHT22;29973;43.742;1.236;2023-03-02T09:26:09;4.40;99.90
44277;DHT22;29973;43.742;1.236;2023-03-02T09:28:35;4.50;99.90
44277;DHT22;29973;43.742;1.236;2023-03-02T09:31:06;4.30;99.90
44277;DHT22;29973;43.742;1.236;2023-03-02T09:33:36;4.40;99.90
44277;DHT22;29973;43.742;1.236;2023-03-02T09:36:20;4.40;99.90
44277;DHT22;29973;43.742;1.236;2023-03-02T09:38:47;4.60;99.90
44277;DHT22;29973;43.742;1.236;2023-03-02T09:41:33;4.90;99.90
44277;DHT22;29973;43.742;1.236;2023-03-02T09:47:37;5.00;99.90
44277;DHT22;29973;43.742;1.236;2023-03-02T09:56:11;5.10;99.90
44277;DHT22;29973;43.742;1.236;2023-03-02T09:59:14;5.10;99.90
44277;DHT22;29973;43.742;1.236;2023-03-02T10:01:55;4.90;99.90
44277;DHT22;29973;43.742;1.236;2023-03-02T10:04:31;4.90;99.90
44277;DHT22;29973;43.742;1.236;2023-03-02T10:09:35;5.00;99.90
44277;DHT22;29973;43.742;1.236;2023-03-02T10:12:35;5.30;99.90
44277;DHT22;29973;43.742;1.236;2023-03-02T10:15:03;5.30;99.90
44277;DHT22;29973;43.742;1.236;2023-03-02T10:20:23;5.40;99.90
44277;DHT22;29973;43.742;1.236;2023-03-02T10:22:55;5.40;99.90
44277;DHT22;29973;43.742;1.236;2023-03-02T10:25:36;5.60;99.90
44277;DHT22;29973;43.742;1.236;2023-03-02T10:28:16;5.40;99.90
44277;DHT22;29973;43.742;1.236;2023-03-02T10:30:45;5.60;99.90
44277;DHT22;29973;43.742;1.236;2023-03-02T10:33:15;5.40;99.90
44277;DHT22;29973;43.742;1.236;2023-03-02T10:35:46;5.70;99.90
44277;DHT22;29973;43.742;1.236;2023-03-02T10:38:15;5.80;99.90
44277;DHT22;29973;43.742;1.236;2023-03-02T10:40:54;5.80;99.90
44277;DHT22;29973;43.742;1.236;2023-03-02T10:43:46;5.90;99.90
44277;DHT22;29973;43.742;1.236;2023-03-02T10:46:13;6.00;99.90
44277;DHT22;29973;43.742;1.236;2023-03-02T10:48:53;6.30;99.90
44277;DHT22;29973;43.742;1.236;2023-03-02T10:51:31;6.50;99.90
44277;DHT22;29973;43.742;1.236;2023-03-02T10:54:13;6.40;99.90
44277;DHT22;29973;43.742;1.236;2023-03-02T10:56:46;6.30;99.90
44277;DHT22;29973;43.742;1.236;2023-03-02T11:02:15;6.80;99.90
44277;DHT22;29973;43.742;1.236;2023-03-02T11:04:41;7.20;99.90
44277;DHT22;29973;43.742;1.236;2023-03-02T11:07:18;6.60;99.90
44277;DHT22;29973;43.742;1.236;2023-03-02T11:10:06;7.00;99.90
44277;DHT22;29973;43.742;1.236;2023-03-02T11:12:34;6.90;99.90
44277;DHT22;29973;43.742;1.236;2023-03-02T11:17:36;6.70;99.90
44277;DHT22;29973;43.742;1.236;2023-03-02T11:20:04;7.00;99.90
44277;DHT22;29973;43.742;1.236;2023-03-02T11:22:39;7.10;99.90
44277;DHT22;29973;43.742;1.236;2023-03-02T11:25:10;7.10;99.90
44277;DHT22;29973;43.742;1.236;2023-03-02T11:27:40;7.10;99.90
44277;DHT22;29973;43.742;1.236;2023-03-02T11:30:12;7.40;99.90
44277;DHT22;29973;43.742;1.236;2023-03-02T11:36:11;7.50;99.90
44277;DHT22;29973;43.742;1.236;2023-03-02T11:38:53;7.50;99.90
44277;DHT22;29973;43.742;1.236;2023-03-02T11:41:37;7.10;99.90
44277;DHT22;29973;43.742;1.236;2023-03-02T11:44:45;7.60;99.90
44277;DHT22;29973;43.742;1.236;2023-03-02T11:47:14;7.50;99.90
44277;DHT22;29973;43.742;1.236;2023-03-02T11:49:44;7.20;99.90
44277;DHT22;29973;43.742;1.236;2023-03-02T11:52:26;7.20;99.90
44277;DHT22;29973;43.742;1.236;2023-03-02T11:55:27;7.90;99.90
44277;DHT22;29973;43.742;1.236;2023-03-02T11:57:58;7.80;99.90
44277;DHT22;29973;43.742;1.236;2023-03-02T12:00:42;7.50;99.90
44277;DHT22;29973;43.742;1.236;2023-03-02T12:03:36;7.60;99.90
44277;DHT22;29973;43.742;1.236;2023-03-02T12:08:38;7.60;99.90
44277;DHT22;29973;43.742;1.236;2023-03-02T12:11:34;7.00;99.90
44277;DHT22;29973;43.742;1.236;2023-03-02T12:14:02;7.20;99.90
44277;DHT22;29973;43.742;1.236;2023-03-02T12:16:42;7.30;99.90
44277;DHT22;29973;43.742;1.236;2023-03-02T12:22:04;7.00;99.90
44277;DHT22;29973;43.742;1.236;2023-03-02T12:24:42;7.40;99.90
44277;DHT22;29973;43.742;1.236;2023-03-02T12:32:35;7.20;99.90
44277;DHT22;29973;43.742;1.236;2023-03-02T12:38:01;7.30;99.90
44277;DHT22;29973;43.742;1.236;2023-03-02T12:41:13;7.20;99.90
44277;DHT22;29973;43.742;1.236;2023-03-02T12:46:45;6.80;99.90
44277;DHT22;29973;43.742;1.236;2023-03-02T12:52:00;7.20;99.90
44277;DHT22;29973;43.742;1.236;2023-03-02T12:54:33;7.10;99.90
44277;DHT22;29973;43.742;1.236;2023-03-02T12:57:18;7.00;99.90
44277;DHT22;29973;43.742;1.236;2023-03-02T12:59:58;7.10;99.90
44277;DHT22;29973;43.742;1.236;2023-03-02T13:02:33;7.20;99.90
44277;DHT22;29973;43.742;1.236;2023-03-02T13:07:34;7.20;99.90
44277;DHT22;29973;43.742;1.236;2023-03-02T13:10:04;7.10;99.90
44277;DHT22;29973;43.742;1.236;2023-03-02T13:12:33;7.30;99.90
44277;DHT22;29973;43.742;1.236;2023-03-02T13:15:00;7.40;99.90
44277;DHT22;29973;43.742;1.236;2023-03-02T13:17:29;7.40;99.90
44277;DHT22;29973;43.742;1.236;2023-03-02T13:19:59;7.40;99.90
44277;DHT22;29973;43.742;1.236;2023-03-02T13:22:26;7.60;99.90
44277;DHT22;29973;43.742;1.236;2023-03-02T13:25:01;7.40;99.90
44277;DHT22;29973;43.742;1.236;2023-03-02T13:27:28;7.20;99.90
44277;DHT22;29973;43.742;1.236;2023-03-02T13:29:54;7.30;99.90
44277;DHT22;29973;43.742;1.236;2023-03-02T13:32:35;7.30;99.90
44277;DHT22;29973;43.742;1.236;2023-03-02T13:35:13;7.30;99.90
44277;DHT22;29973;43.742;1.236;2023-03-02T13:37:39;7.20;99.90
44277;DHT22;29973;43.742;1.236;2023-03-02T13:42:55;6.60;99.90
44277;DHT22;29973;43.742;1.236;2023-03-02T13:45:30;6.70;99.90
44277;DHT22;29973;43.742;1.236;2023-03-02T13:48:11;6.50;99.90
44277;DHT22;29973;43.742;1.236;2023-03-02T13:50:39;6.80;99.90
44277;DHT22;29973;43.742;1.236;2023-03-02T13:53:14;6.70;99.90
44277;DHT22;29973;43.742;1.236;2023-03-02T13:55:40;6.50;99.90
44277;DHT22;29973;43.742;1.236;2023-03-02T13:58:12;6.60;99.90
44277;DHT22;29973;43.742;1.236;2023-03-02T14:00:40;6.70;99.90
44277;DHT22;29973;43.742;1.236;2023-03-02T14:03:25;6.50;99.90
44277;DHT22;29973;43.742;1.236;2023-03-02T14:05:52;6.40;99.90
44277;DHT22;29973;43.742;1.236;2023-03-02T14:08:18;6.50;99.90
44277;DHT22;29973;43.742;1.236;2023-03-02T14:10:45;6.50;99.90
44277;DHT22;29973;43.742;1.236;2023-03-02T14:13:16;6.40;99.90
44277;DHT22;29973;43.742;1.236;2023-03-02T14:15:47;6.40;99.90
44277;DHT22;29973;43.742;1.236;2023-03-02T14:18:41;6.50;99.90
44277;DHT22;29973;43.742;1.236;2023-03-02T14:21:16;6.40;99.90
44277;DHT22;29973;43.742;1.236;2023-03-02T14:23:42;6.60;99.90
44277;DHT22;29973;43.742;1.236;2023-03-02T14:26:32;6.60;99.90
44277;DHT22;29973;43.742;1.236;2023-03-02T14:29:00;6.40;99.90
44277;DHT22;29973;43.742;1.236;2023-03-02T14:31:27;6.60;99.90
44277;DHT22;29973;43.742;1.236;2023-03-02T14:33:53;6.80;99.90
44277;DHT22;29973;43.742;1.236;2023-03-02T14:36:30;7.20;99.90
44277;DHT22;29973;43.742;1.236;2023-03-02T14:39:00;6.90;99.90
44277;DHT22;29973;43.742;1.236;2023-03-02T14:41:27;6.90;99.90
44277;DHT22;29973;43.742;1.236;2023-03-02T14:43:53;6.80;99.90
44277;DHT22;29973;43.742;1.236;2023-03-02T14:46:19;6.90;99.90
44277;DHT22;29973;43.742;1.236;2023-03-02T14:48:45;6.80;99.90
44277;DHT22;29973;43.742;1.236;2023-03-02T14:51:31;6.90;99.90
44277;DHT22;29973;43.742;1.236;2023-03-02T14:54:00;6.80;99.90
44277;DHT22;29973;43.742;1.236;2023-03-02T14:56:26;6.90;99.90
44277;DHT22;29973;43.742;1.236;2023-03-02T14:58:53;6.90;99.90
44277;DHT22;29973;43.742;1.236;2023-03-02T15:01:20;6.80;99.90
44277;DHT22;29973;43.742;1.236;2023-03-02T15:03:45;7.00;99.90
44277;DHT22;29973;43.742;1.236;2023-03-02T15:06:31;6.80;99.90
44277;DHT22;29973;43.742;1.236;2023-03-02T15:08:58;6.80;99.90
44277;DHT22;29973;43.742;1.236;2023-03-02T15:11:26;6.70;99.90
44277;DHT22;29973;43.742;1.236;2023-03-02T15:13:52;6.60;99.90
44277;DHT22;29973;43.742;1.236;2023-03-02T15:16:18;6.60;99.90
44277;DHT22;29973;43.742;1.236;2023-03-02T15:18:44;6.60;99.90
44277;DHT22;29973;43.742;1.236;2023-03-02T15:21:19;6.50;99.90
44277;DHT22;29973;43.742;1.236;2023-03-02T15:23:45;6.60;99.90
44277;DHT22;29973;43.742;1.236;2023-03-02T15:26:11;6.60;99.90
44277;DHT22;29973;43.742;1.236;2023-03-02T15:28:37;6.50;99.90
44277;DHT22;29973;43.742;1.236;2023-03-02T15:31:12;6.50;99.90
44277;DHT22;29973;43.742;1.236;2023-03-02T15:33:42;6.40;99.90
44277;DHT22;29973;43.742;1.236;2023-03-02T15:36:15;6.50;99.90
44277;DHT22;29973;43.742;1.236;2023-03-02T15:38:51;6.30;99.90
44277;DHT22;29973;43.742;1.236;2023-03-02T15:41:17;6.30;99.90
44277;DHT22;29973;43.742;1.236;2023-03-02T15:43:51;6.40;99.90
44277;DHT22;29973;43.742;1.236;2023-03-02T15:46:20;6.40;99.90
44277;DHT22;29973;43.742;1.236;2023-03-02T15:48:47;6.40;99.90
44277;DHT22;29973;43.742;1.236;2023-03-02T15:51:13;6.40;99.90
44277;DHT22;29973;43.742;1.236;2023-03-02T15:53:40;6.40;99.90
44277;DHT22;29973;43.742;1.236;2023-03-02T15:56:07;6.40;99.90
44277;DHT22;29973;43.742;1.236;2023-03-02T15:58:34;6.40;99.90
44277;DHT22;29973;43.742;1.236;2023-03-02T16:01:04;6.30;99.90
44277;DHT22;29973;43.742;1.236;2023-03-02T16:03:30;6.40;99.90
44277;DHT22;29973;43.742;1.236;2023-03-02T16:05:57;6.30;99.90
44277;DHT22;29973;43.742;1.236;2023-03-02T16:08:23;6.30;99.90
44277;DHT22;29973;43.742;1.236;2023-03-02T16:11:00;6.20;99.90
44277;DHT22;29973;43.742;1.236;2023-03-02T16:13:27;6.10;99.90
44277;DHT22;29973;43.742;1.236;2023-03-02T16:15:55;6.00;99.90
44277;DHT22;29973;43.742;1.236;2023-03-02T16:18:23;6.00;99.90
44277;DHT22;29973;43.742;1.236;2023-03-02T16:20:49;6.00;99.90
44277;DHT22;29973;43.742;1.236;2023-03-02T16:23:15;5.90;99.90
44277;DHT22;29973;43.742;1.236;2023-03-02T16:25:42;5.90;99.90
44277;DHT22;29973;43.742;1.236;2023-03-02T16:28:09;5.80;99.90
44277;DHT22;29973;43.742;1.236;2023-03-02T16:30:36;5.80;99.90
44277;DHT22;29973;43.742;1.236;2023-03-02T16:33:05;5.70;99.90
44277;DHT22;29973;43.742;1.236;2023-03-02T16:35:33;5.70;99.90
44277;DHT22;29973;43.742;1.236;2023-03-02T16:37:59;5.70;99.90
44277;DHT22;29973;43.742;1.236;2023-03-02T16:40:25;5.70;99.90
44277;DHT22;29973;43.742;1.236;2023-03-02T16:42:51;5.70;99.90
44277;DHT22;29973;43.742;1.236;2023-03-02T16:45:18;5.60;99.90
44277;DHT22;29973;43.742;1.236;2023-03-02T16:47:47;5.60;99.90
44277;DHT22;29973;43.742;1.236;2023-03-02T16:50:14;5.60;99.90
44277;DHT22;29973;43.742;1.236;2023-03-02T16:52:40;5.60;99.90
44277;DHT22;29973;43.742;1.236;2023-03-02T16:55:16;5.50;99.90
44277;DHT22;29973;43.742;1.236;2023-03-02T16:57:42;5.50;99.90
44277;DHT22;29973;43.742;1.236;2023-03-02T17:00:10;5.40;99.90